createdAt,value
2019-05-19T00:00:00.185Z,14.16
2019-05-19T00:01:00.197Z,14.14
2019-05-19T00:02:00.209Z,14.12
2019-05-19T00:03:00.215Z,14.16
2019-05-19T00:04:00.226Z,14.09
2019-05-19T00:05:00.240Z,14.07
2019-05-19T00:06:00.240Z,14.06
2019-05-19T00:07:00.254Z,14.12
2019-05-19T00:08:00.255Z,14.13
2019-05-19T00:09:00.265Z,14.17
2019-05-19T00:10:00.275Z,14.19
2019-05-19T00:11:00.284Z,14.17
2019-05-19T00:12:00.293Z,14.19
2019-05-19T00:13:00.302Z,14.17
2019-05-19T00:14:00.307Z,14.17
2019-05-19T00:15:00.318Z,14.20
2019-05-19T00:16:00.337Z,14.29
2019-05-19T00:17:00.332Z,14.17
2019-05-19T00:18:00.343Z,14.17
2019-05-19T00:19:00.358Z,14.13
2019-05-19T00:20:00.360Z,14.20
2019-05-19T00:21:00.369Z,14.10
2019-05-19T00:22:00.378Z,14.17
2019-05-19T00:23:00.390Z,14.14
2019-05-19T00:24:00.389Z,14.14
2019-05-19T00:25:00.407Z,13.99
2019-05-19T00:26:00.412Z,14.07
2019-05-19T00:27:00.423Z,14.09
2019-05-19T00:28:00.438Z,14.09
2019-05-19T00:29:00.438Z,13.96
2019-05-19T00:30:00.450Z,14.06
2019-05-19T00:31:00.457Z,13.98
2019-05-19T00:32:00.461Z,14.01
2019-05-19T00:33:00.475Z,13.99
2019-05-19T00:34:00.482Z,13.80
2019-05-19T00:35:00.487Z,13.94
2019-05-19T00:36:00.501Z,13.80
2019-05-19T00:37:00.506Z,13.69
2019-05-19T00:38:00.520Z,13.73
2019-05-19T00:39:00.522Z,13.76
2019-05-19T00:40:00.529Z,13.65
2019-05-19T00:41:00.544Z,13.69
2019-05-19T00:42:00.547Z,13.67
2019-05-19T00:43:00.558Z,13.69
2019-05-19T00:44:00.563Z,13.58
2019-05-19T00:45:00.575Z,13.52
2019-05-19T00:46:00.585Z,13.52
2019-05-19T00:47:00.593Z,13.44
2019-05-19T00:48:00.607Z,13.59
2019-05-19T00:49:00.618Z,13.52
2019-05-19T00:50:00.620Z,13.51
2019-05-19T00:51:00.628Z,13.55
2019-05-19T00:52:00.634Z,13.52
2019-05-19T00:53:00.645Z,13.46
2019-05-19T00:54:00.663Z,13.44
2019-05-19T00:55:00.661Z,13.43
2019-05-19T00:56:00.671Z,13.40
2019-05-19T00:57:00.675Z,13.41
2019-05-19T00:58:00.688Z,13.37
2019-05-19T00:59:00.692Z,13.38
2019-05-19T01:00:00.709Z,13.32
2019-05-19T01:01:00.709Z,13.29
2019-05-19T01:02:00.722Z,13.25
2019-05-19T01:03:00.729Z,13.20
2019-05-19T01:04:00.740Z,13.30
2019-05-19T01:05:00.746Z,13.25
2019-05-19T01:06:00.754Z,13.22
2019-05-19T01:07:00.761Z,13.17
2019-05-19T01:08:00.769Z,13.17
2019-05-19T01:09:00.778Z,13.17
2019-05-19T01:10:00.783Z,13.21
2019-05-19T01:11:00.799Z,13.29
2019-05-19T01:12:00.802Z,13.22
2019-05-19T01:13:00.810Z,13.33
2019-05-19T01:14:00.828Z,13.33
2019-05-19T01:15:00.828Z,13.36
2019-05-19T01:16:00.840Z,13.30
2019-05-19T01:17:00.845Z,13.32
2019-05-19T01:18:00.857Z,13.24
2019-05-19T01:19:00.861Z,13.18
2019-05-19T01:20:00.871Z,13.29
2019-05-19T01:21:00.874Z,13.20
2019-05-19T01:22:00.896Z,13.22
2019-05-19T01:23:00.890Z,13.12
2019-05-19T01:24:00.904Z,13.17
2019-05-19T01:25:00.912Z,13.09
2019-05-19T01:26:00.922Z,13.12
2019-05-19T01:27:00.930Z,13.02
2019-05-19T01:28:00.939Z,13.00
2019-05-19T01:29:00.943Z,12.96
2019-05-19T01:30:00.954Z,12.96
2019-05-19T01:31:00.956Z,12.93
2019-05-19T01:32:00.967Z,12.93
2019-05-19T01:33:00.981Z,12.79
2019-05-19T01:34:00.986Z,12.82
2019-05-19T01:35:01.012Z,12.79
2019-05-19T01:36:01.002Z,12.75
2019-05-19T01:37:01.010Z,12.77
2019-05-19T01:38:01.019Z,12.74
2019-05-19T01:39:01.027Z,12.82
2019-05-19T01:40:01.040Z,12.88
2019-05-19T01:41:01.044Z,12.77
2019-05-19T01:42:01.062Z,12.75
2019-05-19T01:43:01.061Z,12.87
2019-05-19T01:44:01.068Z,12.75
2019-05-19T01:45:01.082Z,12.66
2019-05-19T01:46:01.086Z,12.52
2019-05-19T01:47:01.092Z,12.54
2019-05-19T01:48:01.098Z,12.57
2019-05-19T01:49:01.110Z,12.52
2019-05-19T01:50:17.079Z,12.48
2019-05-19T01:51:01.128Z,12.45
2019-05-19T01:52:01.134Z,12.46
2019-05-19T01:53:01.143Z,12.57
2019-05-19T01:54:01.151Z,12.48
2019-05-19T01:55:01.170Z,12.57
2019-05-19T01:56:01.166Z,12.46
2019-05-19T01:57:01.179Z,12.42
2019-05-19T01:58:01.182Z,12.42
2019-05-19T01:59:01.191Z,12.41
2019-05-19T02:00:01.290Z,12.38
2019-05-19T02:01:01.210Z,12.41
2019-05-19T02:02:01.240Z,12.38
2019-05-19T02:03:01.226Z,12.33
2019-05-19T02:04:01.242Z,12.38
2019-05-19T02:05:01.239Z,12.33
2019-05-19T02:06:01.248Z,12.30
2019-05-19T02:07:01.262Z,12.30
2019-05-19T02:08:01.277Z,12.31
2019-05-19T02:09:01.276Z,12.34
2019-05-19T02:10:01.297Z,12.37
2019-05-19T02:11:01.286Z,12.29
2019-05-19T02:12:01.303Z,12.37
2019-05-19T02:13:01.307Z,12.26
2019-05-19T02:14:01.315Z,12.26
2019-05-19T02:15:01.324Z,12.37
2019-05-19T02:16:01.336Z,12.30
2019-05-19T02:17:01.355Z,12.42
2019-05-19T02:18:01.345Z,12.37
2019-05-19T02:19:01.354Z,12.34
2019-05-19T02:20:01.375Z,12.38
2019-05-19T02:21:01.371Z,12.41
2019-05-19T02:22:01.375Z,12.41
2019-05-19T02:23:01.408Z,12.34
2019-05-19T02:24:01.395Z,12.33
2019-05-19T02:25:01.399Z,12.38
2019-05-19T02:26:01.413Z,12.41
2019-05-19T02:27:01.470Z,12.41
2019-05-19T02:28:01.424Z,12.49
2019-05-19T02:29:01.437Z,12.51
2019-05-19T02:30:01.506Z,12.44
2019-05-19T02:31:01.451Z,12.44
2019-05-19T02:32:01.466Z,12.46
2019-05-19T02:33:01.471Z,12.39
2019-05-19T02:34:01.475Z,12.41
2019-05-19T02:35:01.485Z,12.41
2019-05-19T02:36:01.493Z,12.41
2019-05-19T02:37:01.503Z,12.42
2019-05-19T02:38:01.511Z,12.44
2019-05-19T02:39:01.528Z,12.41
2019-05-19T02:40:01.530Z,12.30
2019-05-19T02:41:01.528Z,12.31
2019-05-19T02:42:01.538Z,12.27
2019-05-19T02:43:01.552Z,12.23
2019-05-19T02:44:01.560Z,12.24
2019-05-19T02:45:01.562Z,12.21
2019-05-19T02:46:01.570Z,12.16
2019-05-19T02:47:01.581Z,12.26
2019-05-19T02:48:01.589Z,12.13
2019-05-19T02:49:01.610Z,12.16
2019-05-19T02:50:01.670Z,12.08
2019-05-19T02:51:01.622Z,12.12
2019-05-19T02:52:01.621Z,12.09
2019-05-19T02:53:01.628Z,12.08
2019-05-19T02:54:01.637Z,12.12
2019-05-19T02:55:01.658Z,12.04
2019-05-19T02:56:01.650Z,12.20
2019-05-19T02:57:01.658Z,12.15
2019-05-19T02:58:01.668Z,12.16
2019-05-19T02:59:01.675Z,12.23
2019-05-19T03:00:01.731Z,12.38
2019-05-19T03:01:01.704Z,12.31
2019-05-19T03:02:01.699Z,12.34
2019-05-19T03:03:01.711Z,12.31
2019-05-19T03:04:01.725Z,12.41
2019-05-19T03:05:01.723Z,12.34
2019-05-19T03:06:01.729Z,12.37
2019-05-19T03:07:01.746Z,12.41
2019-05-19T03:08:01.753Z,12.42
2019-05-19T03:09:01.754Z,12.42
2019-05-19T03:10:01.767Z,12.42
2019-05-19T03:11:01.768Z,12.38
2019-05-19T03:12:01.853Z,12.44
2019-05-19T03:13:01.788Z,12.41
2019-05-19T03:14:01.801Z,12.41
2019-05-19T03:15:01.808Z,12.37
2019-05-19T03:16:01.807Z,12.38
2019-05-19T03:17:01.819Z,12.39
2019-05-19T03:18:01.834Z,12.38
2019-05-19T03:19:01.836Z,12.44
2019-05-19T03:20:01.845Z,12.39
2019-05-19T03:21:10.805Z,12.38
2019-05-19T03:22:01.865Z,12.39
2019-05-19T03:23:01.871Z,12.37
2019-05-19T03:24:01.878Z,12.38
2019-05-19T03:25:01.891Z,12.39
2019-05-19T03:26:01.893Z,12.42
2019-05-19T03:27:01.900Z,12.46
2019-05-19T03:28:01.914Z,12.45
2019-05-19T03:29:01.915Z,12.51
2019-05-19T03:30:01.934Z,12.48
2019-05-19T03:31:01.928Z,12.54
2019-05-19T03:32:01.945Z,12.48
2019-05-19T03:33:01.951Z,12.54
2019-05-19T03:34:01.960Z,12.57
2019-05-19T03:35:02.046Z,12.48
2019-05-19T03:36:01.970Z,12.45
2019-05-19T03:37:01.975Z,12.44
2019-05-19T03:38:01.990Z,12.56
2019-05-19T03:39:02.008Z,12.51
2019-05-19T03:40:02.007Z,12.62
2019-05-19T03:41:02.012Z,12.64
2019-05-19T03:42:02.025Z,12.71
2019-05-19T03:43:02.030Z,12.75
2019-05-19T03:44:02.035Z,12.70
2019-05-19T03:45:02.055Z,12.70
2019-05-19T03:46:02.057Z,12.70
2019-05-19T03:47:02.060Z,12.67
2019-05-19T03:48:02.069Z,12.74
2019-05-19T03:49:02.093Z,12.79
2019-05-19T03:50:02.087Z,12.75
2019-05-19T03:51:02.099Z,12.69
2019-05-19T03:52:02.106Z,12.74
2019-05-19T03:53:02.108Z,12.75
2019-05-19T03:54:02.115Z,12.82
2019-05-19T03:55:02.130Z,12.77
2019-05-19T03:56:02.147Z,12.92
2019-05-19T03:57:02.141Z,12.88
2019-05-19T03:58:02.146Z,12.97
2019-05-19T03:59:02.167Z,12.92
2019-05-19T04:00:02.167Z,12.96
2019-05-19T04:01:02.169Z,12.85
2019-05-19T04:02:02.186Z,12.95
2019-05-19T04:03:02.195Z,12.96
2019-05-19T04:04:02.207Z,12.97
2019-05-19T04:05:02.228Z,13.00
2019-05-19T04:06:02.209Z,13.02
2019-05-19T04:07:02.230Z,13.00
2019-05-19T04:08:02.235Z,12.99
2019-05-19T04:09:02.233Z,13.07
2019-05-19T04:10:02.257Z,13.09
2019-05-19T04:11:02.251Z,13.09
2019-05-19T04:12:02.259Z,13.22
2019-05-19T04:13:02.265Z,13.09
2019-05-19T04:14:02.275Z,13.21
2019-05-19T04:15:02.291Z,13.22
2019-05-19T04:16:02.288Z,13.22
2019-05-19T04:17:02.298Z,13.22
2019-05-19T04:18:02.313Z,13.18
2019-05-19T04:19:02.322Z,13.21
2019-05-19T04:20:02.322Z,13.20
2019-05-19T04:21:02.344Z,13.18
2019-05-19T04:22:02.345Z,13.25
2019-05-19T04:23:02.347Z,13.30
2019-05-19T04:24:02.358Z,13.20
2019-05-19T04:25:02.372Z,13.15
2019-05-19T04:26:02.374Z,13.15
2019-05-19T04:27:02.387Z,13.18
2019-05-19T04:28:02.405Z,13.27
2019-05-19T04:29:02.401Z,13.32
2019-05-19T04:30:02.421Z,13.27
2019-05-19T04:31:02.418Z,13.30
2019-05-19T04:32:02.422Z,13.33
2019-05-19T04:33:02.430Z,13.37
2019-05-19T04:34:02.451Z,13.46
2019-05-19T04:35:02.445Z,13.37
2019-05-19T04:36:02.460Z,13.33
2019-05-19T04:37:02.464Z,13.47
2019-05-19T04:38:02.501Z,13.58
2019-05-19T04:39:02.481Z,13.54
2019-05-19T04:40:02.492Z,13.54
2019-05-19T04:41:02.493Z,13.54
2019-05-19T04:42:02.505Z,13.61
2019-05-19T04:43:02.579Z,13.63
2019-05-19T04:44:02.517Z,13.62
2019-05-19T04:45:02.545Z,13.69
2019-05-19T04:46:02.553Z,13.67
2019-05-19T04:47:02.563Z,13.70
2019-05-19T04:48:02.554Z,13.80
2019-05-19T04:49:02.573Z,13.77
2019-05-19T04:50:02.578Z,13.79
2019-05-19T04:51:02.585Z,13.92
2019-05-19T04:52:06.721Z,14.02
2019-05-19T04:53:02.590Z,14.01
2019-05-19T04:54:02.608Z,14.01
2019-05-19T04:55:02.611Z,14.06
2019-05-19T04:56:02.621Z,14.09
2019-05-19T04:57:02.625Z,14.16
2019-05-19T04:58:02.637Z,14.14
2019-05-19T04:59:02.647Z,14.29
2019-05-19T05:00:02.660Z,14.19
2019-05-19T05:01:02.667Z,14.25
2019-05-19T05:02:02.676Z,14.29
2019-05-19T05:03:02.679Z,14.32
2019-05-19T05:04:02.686Z,14.27
2019-05-19T05:05:02.694Z,14.28
2019-05-19T05:06:02.703Z,14.27
2019-05-19T05:07:02.710Z,14.21
2019-05-19T05:08:02.726Z,14.27
2019-05-19T05:09:02.730Z,14.44
2019-05-19T05:10:02.733Z,14.44
2019-05-19T05:11:02.743Z,14.42
2019-05-19T05:12:02.753Z,14.37
2019-05-19T05:13:02.761Z,14.38
2019-05-19T05:14:02.768Z,14.50
2019-05-19T05:15:02.779Z,14.47
2019-05-19T05:16:02.781Z,14.52
2019-05-19T05:17:02.817Z,14.56
2019-05-19T05:18:02.809Z,14.53
2019-05-19T05:19:02.813Z,14.57
2019-05-19T05:20:02.820Z,14.65
2019-05-19T05:21:02.827Z,14.60
2019-05-19T05:22:02.837Z,14.72
2019-05-19T05:23:02.854Z,14.78
2019-05-19T05:24:02.855Z,14.75
2019-05-19T05:25:02.865Z,14.71
2019-05-19T05:26:02.870Z,14.74
2019-05-19T05:27:03.035Z,14.72
2019-05-19T05:28:02.887Z,14.74
2019-05-19T05:29:02.896Z,14.83
2019-05-19T05:30:02.910Z,14.99
2019-05-19T05:31:02.913Z,14.98
2019-05-19T05:32:02.920Z,14.91
2019-05-19T05:33:02.928Z,14.94
2019-05-19T05:34:02.945Z,15.01
2019-05-19T05:35:02.956Z,15.01
2019-05-19T05:36:02.955Z,15.02
2019-05-19T05:37:02.966Z,14.99
2019-05-19T05:38:02.975Z,15.01
2019-05-19T05:39:02.979Z,15.06
2019-05-19T05:40:03.026Z,15.11
2019-05-19T05:41:02.999Z,15.15
2019-05-19T05:42:03.011Z,15.13
2019-05-19T05:43:03.029Z,15.21
2019-05-19T05:44:03.024Z,15.23
2019-05-19T05:45:03.032Z,15.30
2019-05-19T05:46:03.039Z,15.42
2019-05-19T05:47:03.050Z,15.38
2019-05-19T05:48:03.065Z,15.45
2019-05-19T05:49:03.067Z,15.39
2019-05-19T05:50:03.086Z,15.38
2019-05-19T05:51:03.083Z,15.45
2019-05-19T05:52:03.089Z,15.48
2019-05-19T05:53:03.104Z,15.54
2019-05-19T05:54:03.119Z,15.57
2019-05-19T05:55:03.123Z,15.60
2019-05-19T05:56:03.129Z,15.67
2019-05-19T05:57:03.137Z,15.66
2019-05-19T05:58:03.146Z,15.61
2019-05-19T05:59:03.155Z,15.75
2019-05-19T06:00:03.161Z,15.68
2019-05-19T06:01:03.171Z,15.79
2019-05-19T06:02:03.181Z,15.79
2019-05-19T06:03:03.195Z,15.85
2019-05-19T06:04:03.193Z,15.84
2019-05-19T06:05:03.202Z,15.93
2019-05-19T06:06:03.216Z,15.96
2019-05-19T06:07:03.223Z,15.89
2019-05-19T06:08:03.243Z,15.94
2019-05-19T06:09:03.253Z,15.96
2019-05-19T06:10:03.266Z,15.93
2019-05-19T06:11:03.258Z,16.03
2019-05-19T06:12:03.269Z,16.00
2019-05-19T06:13:03.282Z,16.06
2019-05-19T06:14:03.288Z,16.06
2019-05-19T06:15:03.296Z,16.06
2019-05-19T06:16:03.324Z,16.14
2019-05-19T06:17:03.311Z,16.18
2019-05-19T06:18:03.324Z,16.16
2019-05-19T06:19:03.333Z,16.26
2019-05-19T06:20:03.782Z,16.31
2019-05-19T06:21:03.354Z,16.37
2019-05-19T06:22:03.363Z,16.45
2019-05-19T06:23:03.369Z,16.55
2019-05-19T06:24:03.382Z,16.56
2019-05-19T06:25:03.387Z,16.65
2019-05-19T06:26:03.402Z,16.62
2019-05-19T06:27:03.405Z,16.59
2019-05-19T06:28:03.419Z,16.62
2019-05-19T06:29:03.424Z,16.71
2019-05-19T06:30:03.435Z,16.74
2019-05-19T06:31:03.445Z,16.73
2019-05-19T06:32:03.448Z,16.77
2019-05-19T06:33:03.460Z,16.75
2019-05-19T06:34:03.467Z,16.88
2019-05-19T06:35:03.481Z,16.85
2019-05-19T06:36:03.553Z,16.86
2019-05-19T06:37:03.497Z,16.86
2019-05-19T06:38:03.624Z,16.86
2019-05-19T06:39:03.520Z,16.98
2019-05-19T06:40:03.524Z,16.92
2019-05-19T06:41:03.531Z,16.92
2019-05-19T06:42:03.546Z,16.85
2019-05-19T06:43:03.553Z,17.06
2019-05-19T06:44:03.591Z,17.00
2019-05-19T06:45:03.568Z,17.08
2019-05-19T06:46:03.581Z,17.13
2019-05-19T06:47:03.591Z,17.13
2019-05-19T06:48:03.605Z,17.11
2019-05-19T06:49:03.610Z,17.11
2019-05-19T06:50:03.617Z,17.07
2019-05-19T06:51:03.625Z,16.92
2019-05-19T06:52:03.635Z,16.99
2019-05-19T06:53:13.663Z,17.00
2019-05-19T06:54:03.659Z,17.08
2019-05-19T06:55:03.661Z,17.17
2019-05-19T06:56:03.670Z,17.20
2019-05-19T06:57:03.682Z,17.08
2019-05-19T06:58:03.691Z,17.11
2019-05-19T06:59:03.702Z,17.20
2019-05-19T07:00:03.712Z,17.22
2019-05-19T07:01:03.717Z,17.22
2019-05-19T07:02:03.732Z,17.20
2019-05-19T07:03:03.749Z,17.26
2019-05-19T07:04:03.747Z,17.33
2019-05-19T07:05:03.760Z,17.26
2019-05-19T07:06:03.768Z,17.22
2019-05-19T07:07:03.783Z,17.18
2019-05-19T07:08:03.784Z,17.25
2019-05-19T07:09:03.795Z,17.32
2019-05-19T07:10:03.798Z,17.32
2019-05-19T07:11:03.817Z,17.33
2019-05-19T07:12:03.832Z,17.43
2019-05-19T07:13:03.828Z,17.50
2019-05-19T07:14:03.844Z,17.32
2019-05-19T07:15:03.852Z,17.48
2019-05-19T07:16:03.865Z,17.48
2019-05-19T07:17:03.872Z,17.55
2019-05-19T07:18:03.895Z,17.57
2019-05-19T07:19:03.889Z,17.57
2019-05-19T07:20:03.896Z,17.66
2019-05-19T07:21:03.912Z,17.76
2019-05-19T07:22:03.919Z,17.84
2019-05-19T07:23:03.933Z,17.84
2019-05-19T07:24:03.941Z,17.79
2019-05-19T07:25:03.953Z,17.78
2019-05-19T07:26:03.959Z,17.69
2019-05-19T07:27:03.974Z,17.79
2019-05-19T07:28:03.986Z,17.71
2019-05-19T07:29:04.126Z,17.64
2019-05-19T07:30:04.007Z,17.47
2019-05-19T07:31:04.031Z,17.51
2019-05-19T07:32:04.018Z,17.46
2019-05-19T07:33:04.044Z,17.54
2019-05-19T07:34:04.040Z,17.62
2019-05-19T07:35:04.048Z,17.50
2019-05-19T07:36:04.061Z,17.51
2019-05-19T07:37:04.064Z,17.38
2019-05-19T07:38:07.264Z,17.33
2019-05-19T07:39:04.097Z,17.38
2019-05-19T07:40:04.105Z,17.36
2019-05-19T07:41:04.105Z,17.32
2019-05-19T07:42:04.119Z,17.29
2019-05-19T07:43:04.126Z,17.32
2019-05-19T07:44:04.142Z,17.36
2019-05-19T07:45:04.150Z,17.48
2019-05-19T07:46:04.160Z,17.50
2019-05-19T07:47:04.169Z,17.55
2019-05-19T07:48:04.181Z,17.53
2019-05-19T07:49:04.189Z,17.48
2019-05-19T07:50:04.198Z,17.70
2019-05-19T07:51:04.215Z,17.81
2019-05-19T07:52:04.223Z,17.78
2019-05-19T07:53:04.257Z,17.87
2019-05-19T07:54:04.238Z,17.91
2019-05-19T07:55:04.243Z,17.99
2019-05-19T07:56:04.288Z,17.99
2019-05-19T07:57:04.267Z,17.91
2019-05-19T07:58:04.280Z,18.02
2019-05-19T07:59:07.797Z,18.13
2019-05-19T08:00:04.335Z,18.15
2019-05-19T08:01:04.311Z,18.12
2019-05-19T08:02:04.321Z,18.15
2019-05-19T08:03:04.397Z,18.12
2019-05-19T08:04:04.335Z,18.13
2019-05-19T08:05:04.345Z,18.25
2019-05-19T08:06:04.405Z,18.43
2019-05-19T08:07:04.362Z,18.39
2019-05-19T08:08:04.373Z,18.43
2019-05-19T08:09:04.385Z,18.46
2019-05-19T08:10:04.396Z,18.47
2019-05-19T08:11:04.406Z,18.40
2019-05-19T08:12:04.419Z,18.49
2019-05-19T08:13:04.551Z,18.57
2019-05-19T08:14:04.438Z,18.47
2019-05-19T08:15:04.453Z,18.61
2019-05-19T08:16:04.458Z,18.62
2019-05-19T08:17:04.465Z,18.72
2019-05-19T08:18:04.484Z,18.86
2019-05-19T08:19:04.490Z,18.84
2019-05-19T08:20:04.510Z,18.83
2019-05-19T08:21:04.509Z,18.77
2019-05-19T08:22:04.517Z,18.92
2019-05-19T08:23:04.542Z,18.90
2019-05-19T08:24:04.584Z,19.13
2019-05-19T08:25:04.551Z,19.10
2019-05-19T08:26:04.559Z,19.23
2019-05-19T08:27:04.569Z,19.29
2019-05-19T08:28:08.799Z,19.39
2019-05-19T08:29:04.603Z,19.46
2019-05-19T08:30:04.600Z,19.58
2019-05-19T08:31:04.612Z,19.54
2019-05-19T08:32:04.617Z,19.65
2019-05-19T08:33:04.638Z,19.72
2019-05-19T08:34:04.649Z,19.76
2019-05-19T08:35:04.655Z,19.78
2019-05-19T08:36:04.677Z,19.91
2019-05-19T08:37:04.674Z,19.95
2019-05-19T08:38:04.686Z,20.00
2019-05-19T08:39:04.698Z,20.02
2019-05-19T08:40:04.705Z,20.02
2019-05-19T08:41:04.738Z,19.95
2019-05-19T08:42:04.728Z,19.95
2019-05-19T08:43:04.738Z,19.91
2019-05-19T08:44:04.752Z,19.76
2019-05-19T08:45:04.764Z,19.76
2019-05-19T08:46:04.774Z,19.65
2019-05-19T08:47:04.783Z,19.76
2019-05-19T08:48:04.795Z,19.88
2019-05-19T08:49:04.811Z,19.75
2019-05-19T08:50:04.821Z,19.72
2019-05-19T08:51:04.829Z,19.75
2019-05-19T08:52:04.836Z,19.75
2019-05-19T08:53:04.844Z,19.75
2019-05-19T08:54:14.499Z,19.69
2019-05-19T08:55:04.873Z,19.73
2019-05-19T08:56:04.879Z,19.61
2019-05-19T08:57:04.891Z,19.53
2019-05-19T08:58:04.909Z,19.55
2019-05-19T08:59:04.914Z,19.55
2019-05-19T09:00:04.949Z,19.60
2019-05-19T09:01:04.937Z,19.54
2019-05-19T09:02:04.951Z,19.46
2019-05-19T09:03:05.014Z,19.54
2019-05-19T09:04:04.969Z,19.58
2019-05-19T09:05:04.980Z,19.70
2019-05-19T09:06:04.989Z,19.79
2019-05-19T09:07:05.004Z,19.76
2019-05-19T09:08:05.021Z,19.79
2019-05-19T09:09:05.038Z,19.90
2019-05-19T09:10:05.049Z,19.83
2019-05-19T09:11:05.079Z,19.95
2019-05-19T09:12:05.070Z,20.09
2019-05-19T09:13:05.073Z,20.09
2019-05-19T09:14:05.081Z,20.02
2019-05-19T09:15:05.090Z,19.95
2019-05-19T09:16:05.100Z,19.93
2019-05-19T09:17:05.176Z,19.90
2019-05-19T09:18:05.127Z,19.91
2019-05-19T09:19:05.140Z,19.90
2019-05-19T09:20:05.147Z,19.86
2019-05-19T09:21:05.158Z,19.73
2019-05-19T09:22:05.170Z,19.78
2019-05-19T09:23:05.182Z,19.73
2019-05-19T09:24:05.194Z,19.79
2019-05-19T09:25:05.201Z,20.02
2019-05-19T09:26:05.211Z,20.02
2019-05-19T09:27:05.257Z,20.13
2019-05-19T09:28:05.234Z,20.34
2019-05-19T09:29:05.247Z,20.50
2019-05-19T09:30:05.261Z,20.65
2019-05-19T09:31:05.270Z,20.64
2019-05-19T09:32:05.283Z,20.69
2019-05-19T09:33:05.301Z,20.69
2019-05-19T09:34:05.305Z,20.54
2019-05-19T09:35:05.314Z,20.58
2019-05-19T09:36:05.319Z,20.77
2019-05-19T09:37:05.359Z,20.74
2019-05-19T09:38:05.351Z,20.79
2019-05-19T09:39:05.360Z,20.69
2019-05-19T09:40:05.371Z,20.66
2019-05-19T09:41:05.385Z,20.74
2019-05-19T09:42:05.398Z,20.77
2019-05-19T09:43:05.494Z,20.69
2019-05-19T09:44:05.420Z,20.76
2019-05-19T09:45:05.430Z,20.72
2019-05-19T09:46:05.728Z,20.98
2019-05-19T09:47:05.454Z,20.86
2019-05-19T09:48:05.459Z,20.99
2019-05-19T09:49:05.475Z,20.99
2019-05-19T09:50:05.487Z,21.01
2019-05-19T09:51:05.496Z,20.99
2019-05-19T09:52:05.510Z,20.99
2019-05-19T09:53:05.525Z,21.14
2019-05-19T09:54:05.536Z,21.24
2019-05-19T09:55:05.632Z,21.19
2019-05-19T09:56:05.556Z,21.29
2019-05-19T09:57:05.566Z,21.20
2019-05-19T09:58:05.580Z,21.27
2019-05-19T09:59:05.587Z,21.23
2019-05-19T10:00:05.604Z,21.11
2019-05-19T10:01:05.615Z,21.04
2019-05-19T10:02:05.631Z,20.81
2019-05-19T10:03:05.641Z,20.65
2019-05-19T10:04:07.147Z,20.42
2019-05-19T10:05:05.664Z,20.23
2019-05-19T10:06:05.674Z,20.15
2019-05-19T10:07:06.725Z,20.13
2019-05-19T10:08:05.702Z,20.16
2019-05-19T10:09:05.708Z,20.18
2019-05-19T10:10:05.721Z,20.23
2019-05-19T10:11:05.731Z,20.28
2019-05-19T10:12:05.741Z,20.46
2019-05-19T10:13:05.756Z,20.53
2019-05-19T10:14:05.763Z,20.50
2019-05-19T10:15:05.777Z,20.46
2019-05-19T10:16:05.783Z,20.68
2019-05-19T10:17:05.800Z,20.76
2019-05-19T10:18:05.811Z,20.90
2019-05-19T10:19:05.852Z,21.09
2019-05-19T10:20:05.834Z,21.27
2019-05-19T10:21:05.844Z,21.44
2019-05-19T10:22:05.857Z,21.53
2019-05-19T10:23:05.866Z,21.64
2019-05-19T10:24:05.880Z,21.66
2019-05-19T10:25:20.933Z,21.64
2019-05-19T10:26:05.901Z,21.64
2019-05-19T10:27:05.911Z,21.88
2019-05-19T10:28:05.924Z,22.07
2019-05-19T10:29:05.933Z,21.88
2019-05-19T10:30:05.951Z,21.85
2019-05-19T10:31:05.963Z,21.90
2019-05-19T10:32:05.974Z,21.90
2019-05-19T10:33:05.986Z,21.79
2019-05-19T10:34:05.998Z,21.59
2019-05-19T10:35:06.010Z,21.54
2019-05-19T10:36:06.024Z,21.48
2019-05-19T10:37:06.039Z,21.51
2019-05-19T10:38:06.048Z,21.38
2019-05-19T10:39:06.055Z,21.20
2019-05-19T10:40:06.071Z,20.99
2019-05-19T10:41:06.083Z,21.01
2019-05-19T10:42:06.110Z,20.99
2019-05-19T10:43:06.104Z,20.99
2019-05-19T10:44:06.125Z,20.95
2019-05-19T10:45:06.127Z,20.99
2019-05-19T10:46:06.141Z,21.14
2019-05-19T10:47:06.205Z,21.09
2019-05-19T10:48:06.169Z,21.27
2019-05-19T10:49:06.176Z,21.39
2019-05-19T10:50:06.189Z,21.56
2019-05-19T10:51:06.198Z,21.63
2019-05-19T10:52:06.223Z,21.63
2019-05-19T10:53:06.225Z,21.75
2019-05-19T10:54:06.233Z,21.95
2019-05-19T10:55:06.244Z,22.04
2019-05-19T10:56:06.257Z,22.04
2019-05-19T10:57:06.269Z,22.14
2019-05-19T10:58:06.281Z,22.14
2019-05-19T10:59:06.296Z,22.23
2019-05-19T11:00:06.306Z,22.34
2019-05-19T11:01:06.318Z,22.22
2019-05-19T11:02:06.330Z,22.27
2019-05-19T11:03:06.346Z,22.31
2019-05-19T11:04:06.355Z,22.38
2019-05-19T11:05:06.366Z,22.53
2019-05-19T11:06:06.377Z,22.67
2019-05-19T11:07:06.392Z,22.89
2019-05-19T11:08:06.403Z,22.96
2019-05-19T11:09:06.416Z,23.04
2019-05-19T11:10:06.431Z,22.92
2019-05-19T11:11:06.439Z,23.01
2019-05-19T11:12:06.454Z,23.04
2019-05-19T11:13:06.462Z,23.07
2019-05-19T11:14:06.471Z,23.34
2019-05-19T11:15:06.487Z,23.35
2019-05-19T11:16:06.498Z,23.50
2019-05-19T11:17:06.516Z,23.70
2019-05-19T11:18:06.674Z,24.00
2019-05-19T11:19:06.537Z,24.24
2019-05-19T11:20:06.549Z,24.50
2019-05-19T11:21:06.582Z,24.24
2019-05-19T11:22:06.582Z,23.97
2019-05-19T11:23:06.605Z,24.10
2019-05-19T11:24:06.608Z,25.46
2019-05-19T11:25:06.625Z,26.59
2019-05-19T11:26:06.634Z,26.84
2019-05-19T11:27:06.648Z,26.77
2019-05-19T11:28:06.665Z,26.58
2019-05-19T11:29:06.678Z,27.24
2019-05-19T11:30:06.694Z,27.09
2019-05-19T11:31:06.721Z,27.19
2019-05-19T11:32:06.725Z,26.99
2019-05-19T11:33:06.743Z,26.49
2019-05-19T11:34:06.759Z,25.80
2019-05-19T11:35:06.777Z,25.49
2019-05-19T11:36:06.790Z,25.24
2019-05-19T11:37:07.528Z,24.79
2019-05-19T11:38:06.822Z,24.52
2019-05-19T11:39:06.837Z,24.00
2019-05-19T11:40:06.848Z,23.50
2019-05-19T11:41:06.861Z,23.34
2019-05-19T11:42:06.888Z,23.23
2019-05-19T11:43:06.895Z,23.22
2019-05-19T11:44:06.908Z,23.11
2019-05-19T11:45:06.926Z,23.05
2019-05-19T11:46:06.947Z,23.19
2019-05-19T11:47:06.953Z,23.45
2019-05-19T11:48:06.971Z,25.57
2019-05-19T11:49:06.978Z,27.06
2019-05-19T11:50:07.001Z,28.48
2019-05-19T11:51:07.018Z,29.75
2019-05-19T11:52:07.028Z,30.72
2019-05-19T11:53:07.038Z,31.38
2019-05-19T11:54:07.068Z,32.10
2019-05-19T11:55:07.100Z,32.69
2019-05-19T11:56:10.695Z,33.22
2019-05-19T11:57:07.113Z,33.74
2019-05-19T11:58:07.129Z,34.22
2019-05-19T11:59:07.144Z,34.79
2019-05-19T12:00:07.167Z,35.26
2019-05-19T12:01:07.197Z,35.85
2019-05-19T12:02:07.204Z,36.06
2019-05-19T12:03:07.229Z,36.36
2019-05-19T12:04:07.244Z,36.61
2019-05-19T12:05:07.263Z,36.12
2019-05-19T12:06:07.285Z,36.48
2019-05-19T12:07:07.304Z,36.92
2019-05-19T12:08:07.325Z,37.26
2019-05-19T12:09:07.348Z,37.23
2019-05-19T12:10:07.369Z,37.32
2019-05-19T12:11:07.390Z,37.20
2019-05-19T12:12:07.410Z,35.48
2019-05-19T12:13:07.430Z,34.31
2019-05-19T12:14:07.455Z,34.04
2019-05-19T12:15:07.487Z,33.83
2019-05-19T12:16:07.497Z,32.80
2019-05-19T12:17:07.537Z,31.85
2019-05-19T12:18:07.538Z,31.06
2019-05-19T12:19:07.559Z,30.23
2019-05-19T12:20:07.597Z,31.26
2019-05-19T12:21:07.605Z,32.15
2019-05-19T12:22:07.620Z,32.77
2019-05-19T12:23:07.638Z,33.37
2019-05-19T12:24:07.660Z,34.13
2019-05-19T12:25:07.681Z,34.60
2019-05-19T12:26:22.274Z,35.47
2019-05-19T12:27:07.723Z,35.95
2019-05-19T12:28:07.751Z,35.85
2019-05-19T12:29:07.764Z,34.60
2019-05-19T12:30:07.791Z,33.61
2019-05-19T12:31:07.805Z,33.97
2019-05-19T12:32:07.836Z,34.80
2019-05-19T12:33:07.848Z,34.35
2019-05-19T12:34:07.869Z,33.60
2019-05-19T12:35:07.890Z,34.39
2019-05-19T12:36:07.911Z,34.86
2019-05-19T12:37:07.930Z,35.54
2019-05-19T12:38:07.950Z,36.23
2019-05-19T12:39:08.100Z,36.70
2019-05-19T12:40:07.993Z,37.28
2019-05-19T12:41:08.016Z,37.41
2019-05-19T12:42:08.036Z,37.98
2019-05-19T12:43:08.065Z,38.39
2019-05-19T12:44:08.084Z,37.10
2019-05-19T12:45:08.104Z,37.68
2019-05-19T12:46:16.042Z,38.10
2019-05-19T12:47:08.144Z,38.44
2019-05-19T12:48:08.163Z,38.79
2019-05-19T12:49:08.187Z,39.18
2019-05-19T12:50:08.232Z,39.67
2019-05-19T12:51:08.245Z,39.65
2019-05-19T12:52:08.260Z,39.90